createdAt,value
2018-07-31T00:02:05.215Z,48.45
2018-07-31T00:04:33.507Z,48.80
2018-07-31T00:07:01.725Z,49.25
2018-07-31T00:09:29.907Z,49.44
2018-07-31T00:11:58.103Z,49.44
2018-07-31T00:14:26.293Z,49.12
2018-07-31T00:16:54.522Z,50.40
2018-07-31T00:19:22.707Z,50.90
2018-07-31T00:21:50.894Z,51.07
2018-07-31T00:24:19.095Z,51.86
2018-07-31T00:26:47.287Z,51.27
2018-07-31T00:29:15.456Z,51.00
2018-07-31T00:31:43.654Z,51.51
2018-07-31T00:34:11.855Z,51.78
2018-07-31T00:36:40.075Z,52.02
2018-07-31T00:39:09.259Z,52.19
2018-07-31T00:41:37.473Z,52.62
2018-07-31T00:44:05.776Z,53.64
2018-07-31T00:46:33.980Z,53.38
2018-07-31T00:49:02.206Z,53.26
2018-07-31T00:51:30.399Z,53.22
2018-07-31T00:53:58.590Z,53.11
2018-07-31T00:56:26.823Z,53.11
2018-07-31T00:58:55.005Z,53.06
2018-07-31T01:01:23.204Z,53.50
2018-07-31T01:03:51.387Z,53.78
2018-07-31T01:06:23.738Z,53.84
2018-07-31T01:08:51.940Z,54.19
2018-07-31T01:11:20.120Z,53.93
2018-07-31T01:13:48.296Z,53.79
2018-07-31T01:16:16.466Z,53.89
2018-07-31T01:18:44.661Z,53.93
2018-07-31T01:21:12.826Z,53.98
2018-07-31T01:23:41.003Z,54.32
2018-07-31T01:26:09.183Z,54.14
2018-07-31T01:28:37.470Z,54.21
2018-07-31T01:31:05.667Z,54.10
2018-07-31T01:33:33.839Z,54.21
2018-07-31T01:36:02.074Z,54.92
2018-07-31T01:38:30.247Z,54.61
2018-07-31T01:40:58.474Z,54.94
2018-07-31T01:43:26.659Z,55.02
2018-07-31T01:45:54.924Z,55.09
2018-07-31T01:48:23.055Z,54.80
2018-07-31T01:50:51.222Z,54.97
2018-07-31T01:53:19.407Z,55.36
2018-07-31T01:55:47.586Z,55.74
2018-07-31T01:58:15.775Z,55.80
2018-07-31T02:00:43.950Z,55.94
2018-07-31T02:03:12.128Z,55.77
2018-07-31T02:05:40.328Z,55.56
2018-07-31T02:08:08.510Z,55.77
2018-07-31T02:10:36.702Z,56.25
2018-07-31T02:13:04.906Z,56.42
2018-07-31T02:15:33.108Z,56.35
2018-07-31T02:18:01.290Z,56.38
2018-07-31T02:20:29.483Z,57.08
2018-07-31T02:22:57.648Z,57.43
2018-07-31T02:25:25.824Z,57.14
2018-07-31T02:27:54.031Z,57.52
2018-07-31T02:30:23.254Z,56.85
2018-07-31T02:32:54.028Z,57.15
2018-07-31T02:35:22.250Z,57.26
2018-07-31T02:37:50.431Z,58.09
2018-07-31T02:40:18.608Z,57.65
2018-07-31T02:42:46.792Z,57.65
2018-07-31T02:45:15.352Z,58.44
2018-07-31T02:47:44.358Z,58.33
2018-07-31T02:50:12.573Z,58.94
2018-07-31T02:52:40.986Z,59.09
2018-07-31T02:55:10.299Z,59.49
2018-07-31T02:57:39.081Z,59.10
2018-07-31T03:00:08.511Z,59.08
2018-07-31T03:02:36.692Z,59.46
2018-07-31T03:05:06.037Z,60.14
2018-07-31T03:07:34.220Z,59.70
2018-07-31T03:10:02.415Z,60.08
2018-07-31T03:12:30.611Z,60.42
2018-07-31T03:14:58.807Z,60.54
2018-07-31T03:17:27.044Z,60.59
2018-07-31T03:19:55.223Z,60.24
2018-07-31T03:22:23.423Z,60.83
2018-07-31T03:24:51.620Z,60.90
2018-07-31T03:27:19.794Z,60.81
2018-07-31T03:29:47.991Z,60.69
2018-07-31T03:32:16.163Z,61.09
2018-07-31T03:34:44.430Z,60.83
2018-07-31T03:37:12.595Z,61.44
2018-07-31T03:39:40.788Z,61.48
2018-07-31T03:42:09.007Z,61.12
2018-07-31T03:44:37.183Z,60.82
2018-07-31T03:47:05.411Z,60.81
2018-07-31T03:49:33.599Z,61.19
2018-07-31T03:52:01.793Z,61.06
2018-07-31T03:54:29.979Z,61.46
2018-07-31T03:56:58.158Z,61.62
2018-07-31T03:59:26.375Z,61.82
2018-07-31T04:01:54.558Z,61.65
2018-07-31T04:04:22.750Z,61.80
2018-07-31T04:06:50.926Z,62.02
2018-07-31T04:09:19.110Z,61.74
2018-07-31T04:11:47.294Z,62.01
2018-07-31T04:14:15.483Z,62.28
2018-07-31T04:16:43.694Z,62.20
2018-07-31T04:19:11.864Z,62.54
2018-07-31T04:21:40.047Z,63.14
2018-07-31T04:24:08.235Z,63.01
2018-07-31T04:26:36.446Z,63.00
2018-07-31T04:29:04.626Z,63.04
2018-07-31T04:31:32.833Z,62.84
2018-07-31T04:34:01.011Z,63.35
2018-07-31T04:36:29.174Z,63.09
2018-07-31T04:38:57.543Z,63.28
2018-07-31T04:41:25.733Z,64.08
2018-07-31T04:43:53.894Z,63.55
2018-07-31T04:46:22.062Z,63.78
2018-07-31T04:48:50.250Z,63.26
2018-07-31T04:51:18.413Z,63.48
2018-07-31T04:53:46.688Z,63.10
2018-07-31T04:56:14.926Z,63.08
2018-07-31T04:58:43.111Z,62.59
2018-07-31T05:01:11.299Z,62.42
2018-07-31T05:03:39.472Z,61.96
2018-07-31T05:06:07.678Z,62.25
2018-07-31T05:08:35.871Z,62.01
2018-07-31T05:11:04.153Z,62.36
2018-07-31T05:13:32.275Z,62.85
2018-07-31T05:16:00.446Z,63.04
2018-07-31T05:18:28.747Z,63.15
2018-07-31T05:20:56.927Z,63.43
2018-07-31T05:23:25.189Z,63.37
2018-07-31T05:25:53.396Z,63.29
2018-07-31T05:28:21.590Z,63.66
2018-07-31T05:30:49.759Z,63.35
2018-07-31T05:33:19.057Z,63.30
2018-07-31T05:35:47.259Z,63.41
2018-07-31T05:38:15.504Z,63.65
2018-07-31T05:40:43.695Z,63.57
2018-07-31T05:43:11.876Z,63.41
2018-07-31T05:45:41.708Z,62.88
2018-07-31T05:48:09.881Z,62.60
2018-07-31T05:50:38.063Z,62.28
2018-07-31T05:53:06.316Z,61.19
2018-07-31T05:55:34.531Z,60.57
2018-07-31T05:58:02.702Z,60.56
2018-07-31T06:00:30.880Z,59.74
2018-07-31T06:02:59.139Z,60.41
2018-07-31T06:05:27.322Z,59.61
2018-07-31T06:07:55.518Z,58.34
2018-07-31T06:10:23.716Z,57.30
2018-07-31T06:12:51.908Z,57.03
2018-07-31T06:15:20.433Z,57.37
2018-07-31T06:17:48.623Z,56.76
2018-07-31T06:20:17.350Z,56.14
2018-07-31T06:22:47.734Z,56.64
2018-07-31T06:25:16.149Z,56.18
2018-07-31T06:27:44.952Z,56.17
2018-07-31T06:30:14.451Z,56.91
2018-07-31T06:32:43.252Z,56.45
2018-07-31T06:35:11.486Z,56.37
2018-07-31T06:37:39.787Z,56.23
2018-07-31T06:40:08.591Z,56.43
2018-07-31T06:42:36.770Z,56.59
2018-07-31T06:45:05.256Z,56.69
2018-07-31T06:47:33.451Z,57.24
2018-07-31T06:50:01.688Z,56.34
2018-07-31T06:52:29.914Z,56.54
2018-07-31T06:54:58.114Z,57.18
2018-07-31T06:57:26.338Z,56.16
2018-07-31T06:59:54.559Z,55.55
2018-07-31T07:02:22.747Z,55.92
2018-07-31T07:04:50.955Z,55.02
2018-07-31T07:07:19.145Z,55.55
2018-07-31T07:09:47.469Z,55.02
2018-07-31T07:12:15.674Z,54.82
2018-07-31T07:14:43.883Z,54.83
2018-07-31T07:17:12.090Z,54.37
2018-07-31T07:19:40.306Z,53.88
2018-07-31T07:22:08.528Z,53.96
2018-07-31T07:24:36.727Z,54.47
2018-07-31T07:27:04.930Z,54.11
2018-07-31T07:29:33.118Z,53.21
2018-07-31T07:32:01.363Z,52.60
2018-07-31T07:34:29.554Z,53.26
2018-07-31T07:36:57.882Z,53.02
2018-07-31T07:39:26.099Z,52.85
2018-07-31T07:41:54.372Z,52.04
2018-07-31T07:44:22.584Z,52.54
2018-07-31T07:46:50.805Z,52.84
2018-07-31T07:49:18.991Z,52.01
2018-07-31T07:51:47.352Z,52.99
2018-07-31T07:54:15.667Z,53.01
2018-07-31T07:56:43.870Z,52.00
2018-07-31T07:59:12.134Z,51.50
2018-07-31T08:01:40.406Z,51.55
2018-07-31T08:04:08.679Z,50.54
2018-07-31T08:06:36.932Z,50.57
2018-07-31T08:09:07.451Z,50.49
2018-07-31T08:11:36.234Z,49.75
2018-07-31T08:14:04.671Z,48.30
2018-07-31T08:16:32.901Z,48.06
2018-07-31T08:19:01.481Z,46.92
2018-07-31T08:21:29.750Z,47.79
2018-07-31T08:24:00.758Z,46.46
2018-07-31T08:26:29.026Z,46.96
2018-07-31T08:28:57.371Z,46.67
2018-07-31T08:31:25.556Z,45.72
2018-07-31T08:33:53.823Z,46.42
2018-07-31T08:36:22.083Z,44.83
2018-07-31T08:38:50.336Z,45.53
2018-07-31T08:41:18.615Z,45.11
2018-07-31T08:43:46.922Z,44.36
2018-07-31T08:46:15.186Z,45.19
2018-07-31T08:48:43.461Z,45.14
2018-07-31T08:51:11.767Z,45.66
2018-07-31T08:53:40.982Z,45.62
2018-07-31T08:56:10.293Z,43.81
2018-07-31T08:58:38.498Z,46.16
2018-07-31T09:01:06.754Z,44.79
2018-07-31T09:03:34.998Z,43.66
2018-07-31T09:06:03.289Z,43.98
2018-07-31T09:08:31.643Z,43.76
2018-07-31T09:10:59.710Z,42.36
2018-07-31T09:13:27.936Z,42.84
2018-07-31T09:15:56.106Z,42.28
2018-07-31T09:18:24.323Z,41.22
2018-07-31T09:20:52.726Z,41.42
2018-07-31T09:23:20.919Z,40.43
2018-07-31T09:25:50.187Z,39.73
2018-07-31T09:28:19.126Z,39.95
2018-07-31T09:30:53.466Z,38.52
2018-07-31T09:33:23.174Z,38.88
2018-07-31T09:35:51.437Z,38.60
2018-07-31T09:38:20.821Z,37.69
2018-07-31T09:40:49.145Z,37.08
2018-07-31T09:43:17.445Z,37.71
2018-07-31T09:45:45.695Z,36.82
2018-07-31T09:48:14.704Z,36.05
2018-07-31T09:50:43.944Z,36.04
2018-07-31T09:53:13.400Z,35.25
2018-07-31T09:55:43.189Z,35.81
2018-07-31T09:58:11.416Z,35.30
2018-07-31T10:00:45.075Z,34.59
2018-07-31T10:03:13.300Z,34.79
2018-07-31T10:05:42.677Z,34.86
2018-07-31T10:08:11.082Z,34.93
2018-07-31T10:10:40.187Z,33.06
2018-07-31T10:13:08.474Z,33.55
2018-07-31T10:15:36.718Z,34.12
2018-07-31T10:18:05.101Z,34.07
2018-07-31T10:20:33.375Z,33.80
2018-07-31T10:23:02.699Z,33.08
2018-07-31T10:25:31.117Z,32.96
2018-07-31T10:27:59.374Z,32.26
2018-07-31T10:30:27.643Z,33.06
2018-07-31T10:32:55.920Z,33.04
2018-07-31T10:35:24.798Z,33.89
2018-07-31T10:37:53.246Z,32.36
2018-07-31T10:40:23.287Z,31.99
2018-07-31T10:42:52.522Z,31.93
2018-07-31T10:45:20.762Z,31.22
2018-07-31T10:47:49.022Z,30.18
2018-07-31T10:50:17.282Z,29.40
2018-07-31T10:52:45.502Z,29.63
2018-07-31T10:55:13.715Z,30.11
2018-07-31T10:57:42.246Z,29.30
2018-07-31T11:00:10.724Z,29.92
2018-07-31T11:02:40.502Z,29.22
2018-07-31T11:05:09.619Z,29.69
2018-07-31T11:07:38.835Z,30.54
2018-07-31T11:10:07.707Z,29.96
2018-07-31T11:12:36.180Z,29.78
2018-07-31T11:15:05.959Z,29.62
2018-07-31T11:17:34.161Z,29.16
2018-07-31T11:20:02.354Z,30.21
2018-07-31T11:22:30.591Z,30.38
2018-07-31T11:24:58.766Z,30.44
2018-07-31T11:27:26.997Z,30.88
2018-07-31T11:29:55.175Z,31.45
2018-07-31T11:32:23.368Z,30.87
2018-07-31T11:34:51.549Z,30.63
2018-07-31T11:37:19.763Z,30.58
2018-07-31T11:39:47.975Z,30.70
2018-07-31T11:42:16.207Z,30.69
2018-07-31T11:44:44.412Z,30.28
2018-07-31T11:47:12.596Z,30.35
2018-07-31T11:49:40.839Z,30.15
2018-07-31T11:52:09.032Z,29.53
2018-07-31T11:54:37.235Z,30.22
2018-07-31T11:57:05.419Z,29.93
2018-07-31T11:59:33.619Z,30.30
2018-07-31T12:02:01.868Z,29.63
2018-07-31T12:04:30.032Z,29.93
2018-07-31T12:06:58.218Z,30.50
2018-07-31T12:09:26.427Z,29.86
2018-07-31T12:11:54.595Z,30.56
2018-07-31T12:14:22.778Z,29.88
2018-07-31T12:16:50.987Z,31.08
2018-07-31T12:19:19.175Z,30.23
2018-07-31T12:21:47.383Z,29.97
2018-07-31T12:24:15.623Z,30.52
2018-07-31T12:26:43.897Z,30.08
2018-07-31T12:29:15.992Z,29.31
2018-07-31T12:31:44.203Z,29.73
2018-07-31T12:34:12.685Z,29.49
2018-07-31T12:36:40.879Z,28.98
2018-07-31T12:39:11.171Z,29.15
2018-07-31T12:41:39.434Z,28.75
2018-07-31T12:44:07.677Z,28.94
2018-07-31T12:46:36.677Z,28.65
2018-07-31T12:49:04.908Z,28.99
2018-07-31T12:51:33.157Z,29.76
2018-07-31T12:54:01.591Z,29.72
2018-07-31T12:56:29.830Z,29.71
2018-07-31T12:58:58.111Z,29.32
2018-07-31T13:01:26.290Z,29.81
2018-07-31T13:03:54.502Z,29.67
2018-07-31T13:06:22.784Z,29.18
2018-07-31T13:08:50.973Z,29.50
2018-07-31T13:11:19.189Z,29.94
2018-07-31T13:13:47.422Z,29.59
2018-07-31T13:16:16.354Z,29.78
2018-07-31T13:18:45.864Z,30.68
2018-07-31T13:21:15.272Z,30.62
2018-07-31T13:23:43.522Z,31.10
2018-07-31T13:26:13.111Z,31.23
2018-07-31T13:28:42.471Z,31.50
2018-07-31T13:31:10.810Z,31.70
2018-07-31T13:33:39.095Z,32.05
2018-07-31T13:36:07.487Z,31.52
2018-07-31T13:38:35.714Z,33.05
2018-07-31T13:41:04.930Z,32.15
2018-07-31T13:43:33.574Z,31.84
2018-07-31T13:46:04.497Z,32.14
2018-07-31T13:48:33.285Z,32.46
2018-07-31T13:51:01.580Z,32.47
2018-07-31T13:53:30.715Z,33.08
2018-07-31T13:56:00.037Z,32.97
2018-07-31T13:58:29.247Z,33.58
2018-07-31T14:00:57.503Z,33.23
2018-07-31T14:03:25.702Z,33.30
2018-07-31T14:05:56.108Z,33.92
2018-07-31T14:08:29.153Z,34.09
2018-07-31T14:10:57.336Z,33.38
2018-07-31T14:13:25.566Z,33.27
2018-07-31T14:15:53.816Z,33.05
2018-07-31T14:18:22.088Z,33.55
2018-07-31T14:20:50.361Z,33.33
2018-07-31T14:23:18.792Z,33.35
2018-07-31T14:25:47.007Z,34.65
2018-07-31T14:28:15.274Z,34.41
2018-07-31T14:30:43.541Z,33.70
2018-07-31T14:33:12.635Z,34.22
2018-07-31T14:35:41.535Z,33.43
2018-07-31T14:38:10.685Z,34.06
2018-07-31T14:40:38.987Z,33.45
2018-07-31T14:43:07.242Z,32.80
2018-07-31T14:45:35.653Z,33.23
2018-07-31T14:48:03.779Z,33.12
2018-07-31T14:50:32.011Z,33.15
2018-07-31T14:53:00.207Z,33.47
2018-07-31T14:55:28.406Z,34.07
2018-07-31T14:57:56.664Z,33.29
2018-07-31T15:00:24.887Z,33.74
2018-07-31T15:02:53.112Z,33.81
2018-07-31T15:05:21.447Z,34.12
2018-07-31T15:07:49.811Z,33.84
2018-07-31T15:10:18.055Z,32.98
2018-07-31T15:12:46.316Z,33.65
2018-07-31T15:15:14.574Z,33.48
2018-07-31T15:17:42.759Z,32.60
2018-07-31T15:20:10.987Z,33.65
2018-07-31T15:22:39.282Z,33.08
2018-07-31T15:25:07.848Z,33.63
2018-07-31T15:27:36.099Z,33.46
2018-07-31T15:30:05.490Z,32.54
2018-07-31T15:32:33.771Z,32.51
2018-07-31T15:35:02.142Z,32.24
2018-07-31T15:37:30.370Z,32.19
2018-07-31T15:39:58.589Z,32.02
2018-07-31T15:42:26.822Z,31.28
2018-07-31T15:44:55.124Z,31.72
2018-07-31T15:47:23.369Z,31.42
2018-07-31T15:49:51.571Z,31.67
2018-07-31T15:52:19.799Z,31.09
2018-07-31T15:54:48.022Z,31.91
2018-07-31T15:57:16.402Z,31.64
2018-07-31T15:59:44.666Z,31.27
2018-07-31T16:02:12.858Z,31.12
2018-07-31T16:04:41.075Z,31.00
2018-07-31T16:07:09.583Z,31.47
2018-07-31T16:09:37.791Z,31.14
2018-07-31T16:12:06.234Z,30.84
2018-07-31T16:14:34.406Z,31.15
2018-07-31T16:17:02.575Z,31.33
2018-07-31T16:19:30.751Z,31.24
2018-07-31T16:21:58.915Z,31.67
2018-07-31T16:24:27.099Z,31.73
2018-07-31T16:26:55.272Z,31.96
2018-07-31T16:29:25.620Z,30.97
2018-07-31T16:31:53.795Z,32.00
2018-07-31T16:34:21.988Z,31.87
2018-07-31T16:36:50.176Z,31.86
2018-07-31T16:39:18.415Z,31.47
2018-07-31T16:41:46.591Z,30.85
2018-07-31T16:44:14.754Z,30.95
2018-07-31T16:46:42.921Z,31.27
2018-07-31T16:49:11.158Z,30.87
2018-07-31T16:51:39.356Z,31.43
2018-07-31T16:54:07.531Z,31.17
2018-07-31T16:56:35.807Z,31.54
2018-07-31T16:59:03.988Z,30.97
2018-07-31T17:01:32.411Z,30.85
2018-07-31T17:04:00.565Z,31.26
2018-07-31T17:06:28.711Z,30.40
2018-07-31T17:08:58.575Z,30.92
2018-07-31T17:11:27.098Z,30.36
2018-07-31T17:13:55.305Z,30.53
2018-07-31T17:16:23.475Z,30.41
2018-07-31T17:18:51.683Z,31.59
2018-07-31T17:21:19.871Z,31.40
2018-07-31T17:23:48.147Z,32.89
2018-07-31T17:26:16.334Z,32.75
2018-07-31T17:28:44.515Z,31.48
2018-07-31T17:31:13.238Z,31.10
2018-07-31T17:33:42.382Z,31.34
2018-07-31T17:36:13.407Z,31.77
2018-07-31T17:38:41.694Z,31.45
2018-07-31T17:41:09.922Z,31.54
2018-07-31T17:43:38.119Z,31.64
2018-07-31T17:46:06.469Z,31.69
2018-07-31T17:48:34.747Z,31.41
2018-07-31T17:51:03.595Z,31.55
2018-07-31T17:53:31.818Z,30.80
2018-07-31T17:56:00.092Z,31.59
2018-07-31T17:58:28.274Z,31.08
2018-07-31T18:00:56.510Z,31.06
2018-07-31T18:03:24.755Z,31.52
2018-07-31T18:05:52.939Z,31.36
2018-07-31T18:08:21.158Z,31.72
2018-07-31T18:10:57.591Z,31.83
2018-07-31T18:13:27.018Z,31.68
2018-07-31T18:15:56.512Z,32.41
2018-07-31T18:18:24.746Z,32.35
2018-07-31T18:20:52.944Z,32.08
2018-07-31T18:23:21.171Z,32.14
2018-07-31T18:25:50.986Z,32.12
2018-07-31T18:28:20.127Z,32.29
2018-07-31T18:30:48.427Z,32.32
2018-07-31T18:33:16.825Z,32.52
2018-07-31T18:35:56.427Z,33.30
2018-07-31T18:38:24.754Z,33.04
2018-07-31T18:40:52.930Z,32.74
2018-07-31T18:43:21.434Z,34.22
2018-07-31T18:45:49.794Z,33.11
2018-07-31T18:48:18.016Z,33.07
2018-07-31T18:50:46.264Z,32.86
2018-07-31T18:53:14.427Z,33.84
2018-07-31T18:55:43.361Z,33.37
2018-07-31T18:58:12.166Z,34.43
2018-07-31T19:00:40.368Z,34.60
2018-07-31T19:03:08.586Z,34.01
2018-07-31T19:05:36.768Z,34.50
2018-07-31T19:08:06.568Z,34.68
2018-07-31T19:10:35.554Z,35.30
2018-07-31T19:13:03.827Z,35.79
2018-07-31T19:15:32.595Z,35.53
2018-07-31T19:18:01.819Z,35.82
2018-07-31T19:20:31.091Z,36.63
2018-07-31T19:22:59.354Z,37.07
2018-07-31T19:25:27.579Z,37.48
2018-07-31T19:27:56.022Z,37.37
2018-07-31T19:30:24.186Z,37.86
2018-07-31T19:32:52.582Z,38.25
2018-07-31T19:35:20.883Z,38.27
2018-07-31T19:37:50.011Z,38.94
2018-07-31T19:40:18.362Z,39.01
2018-07-31T19:42:48.015Z,39.15
2018-07-31T19:45:16.499Z,39.64
2018-07-31T19:47:44.823Z,39.53
2018-07-31T19:50:13.509Z,39.75
2018-07-31T19:52:43.478Z,39.96
2018-07-31T19:55:11.819Z,39.89
2018-07-31T19:57:40.159Z,39.85
2018-07-31T20:00:09.973Z,40.62
2018-07-31T20:02:38.334Z,40.50
2018-07-31T20:05:08.706Z,40.43
2018-07-31T20:07:37.306Z,41.00
2018-07-31T20:10:06.575Z,40.77
2018-07-31T20:12:34.923Z,41.21
2018-07-31T20:15:04.615Z,41.35
2018-07-31T20:17:33.506Z,41.67
2018-07-31T20:20:01.788Z,41.36
2018-07-31T20:22:30.089Z,41.54
2018-07-31T20:24:58.346Z,41.85
2018-07-31T20:27:27.588Z,42.59
2018-07-31T20:29:55.782Z,42.28
2018-07-31T20:32:23.966Z,42.67
2018-07-31T20:34:52.146Z,42.79
2018-07-31T20:37:20.330Z,42.82
2018-07-31T20:39:48.515Z,42.91
2018-07-31T20:42:16.723Z,42.90
2018-07-31T20:44:44.926Z,42.90
2018-07-31T20:47:13.108Z,43.06
2018-07-31T20:49:41.371Z,42.66
2018-07-31T20:52:09.556Z,42.73
2018-07-31T20:54:37.742Z,43.30
2018-07-31T20:57:06.106Z,43.20
2018-07-31T20:59:34.310Z,43.62
2018-07-31T21:02:02.536Z,43.52
2018-07-31T21:04:30.733Z,43.76
2018-07-31T21:06:58.931Z,43.85
2018-07-31T21:09:27.107Z,43.32
2018-07-31T21:11:55.286Z,43.91
2018-07-31T21:14:23.507Z,43.88
2018-07-31T21:16:51.686Z,43.52
2018-07-31T21:19:19.966Z,44.22
2018-07-31T21:21:48.161Z,43.95
2018-07-31T21:24:16.334Z,44.25
2018-07-31T21:26:44.514Z,44.36
2018-07-31T21:29:12.759Z,44.16
2018-07-31T21:31:40.939Z,43.53
2018-07-31T21:34:09.122Z,44.14
2018-07-31T21:36:37.290Z,43.87
2018-07-31T21:39:08.678Z,44.05
2018-07-31T21:41:36.876Z,43.89
2018-07-31T21:44:05.096Z,44.06
2018-07-31T21:46:33.289Z,44.21
2018-07-31T21:49:01.458Z,43.99
2018-07-31T21:51:29.659Z,44.65
2018-07-31T21:53:57.831Z,44.14
2018-07-31T21:56:26.027Z,44.74
2018-07-31T21:58:54.210Z,44.09
2018-07-31T22:01:22.394Z,44.41
2018-07-31T22:03:50.563Z,44.66
2018-07-31T22:06:18.754Z,44.88
2018-07-31T22:08:46.956Z,44.79
2018-07-31T22:11:15.142Z,44.38
2018-07-31T22:13:43.331Z,44.93
2018-07-31T22:16:11.507Z,45.26
2018-07-31T22:18:39.691Z,44.83
2018-07-31T22:21:07.871Z,45.16
2018-07-31T22:23:36.056Z,45.22
2018-07-31T22:26:04.266Z,45.39
2018-07-31T22:28:32.507Z,45.35
2018-07-31T22:31:00.686Z,45.91
2018-07-31T22:33:28.922Z,45.89
2018-07-31T22:35:57.122Z,45.84
2018-07-31T22:38:25.306Z,45.98
2018-07-31T22:40:53.517Z,45.88
2018-07-31T22:43:21.690Z,45.92
2018-07-31T22:45:49.895Z,46.15
2018-07-31T22:48:18.087Z,46.26
2018-07-31T22:50:46.277Z,46.64
2018-07-31T22:53:14.502Z,46.03
2018-07-31T22:55:42.683Z,46.76
2018-07-31T22:58:10.891Z,46.30
2018-07-31T23:00:39.086Z,46.41
2018-07-31T23:03:07.283Z,46.74
2018-07-31T23:05:35.476Z,47.23
2018-07-31T23:08:03.658Z,47.17
2018-07-31T23:10:31.885Z,47.60
2018-07-31T23:13:00.070Z,48.17
2018-07-31T23:15:28.262Z,48.04
2018-07-31T23:17:56.446Z,48.05
2018-07-31T23:20:24.642Z,47.99
2018-07-31T23:22:52.902Z,48.04
2018-07-31T23:25:21.107Z,48.50
2018-07-31T23:27:49.286Z,48.60
2018-07-31T23:30:17.475Z,49.11
2018-07-31T23:32:48.590Z,49.15
2018-07-31T23:35:16.726Z,49.26
2018-07-31T23:37:44.954Z,49.21
2018-07-31T23:40:13.104Z,49.85
2018-07-31T23:42:41.302Z,49.33
2018-07-31T23:45:09.489Z,49.67
2018-07-31T23:47:37.686Z,49.40
2018-07-31T23:50:05.894Z,48.86
2018-07-31T23:52:34.068Z,48.44
2018-07-31T23:55:02.267Z,48.57
2018-07-31T23:57:30.455Z,48.21
2018-07-31T23:59:58.665Z,47.38
